sensor_id;sensor_type;location;lat;lon;timestamp;pressure;altitude;pressure_sealevel;temperature
75658;BMP280;64255;49.892;17.884;2022-11-20T07:17:07;98243.69;;;19.94
75658;BMP280;64255;49.892;17.884;2022-11-20T07:19:34;98239.44;;;19.62
75658;BMP280;64255;49.892;17.884;2022-11-20T07:24:57;98250.81;;;19.61
75658;BMP280;64255;49.892;17.884;2022-11-20T07:27:24;98248.19;;;15.59
75658;BMP280;64255;49.892;17.884;2022-11-20T07:29:52;98249.16;;;11.87
75658;BMP280;64255;49.892;17.884;2022-11-20T07:32:19;98244.22;;;9.03
75658;BMP280;64255;49.892;17.884;2022-11-20T07:34:47;98251.00;;;6.99
75658;BMP280;64255;49.892;17.884;2022-11-20T07:37:15;98248.31;;;5.45
75658;BMP280;64255;49.892;17.884;2022-11-20T07:39:42;98243.19;;;4.29
75658;BMP280;64255;49.892;17.884;2022-11-20T07:42:10;98245.84;;;3.45
75658;BMP280;64255;49.892;17.884;2022-11-20T07:44:38;98232.81;;;2.71
75658;BMP280;64255;49.892;17.884;2022-11-20T07:47:05;98244.06;;;2.22
75658;BMP280;64255;49.892;17.884;2022-11-20T07:49:32;98238.78;;;1.82
75658;BMP280;64255;49.892;17.884;2022-11-20T07:51:59;98234.88;;;1.46
75658;BMP280;64255;49.892;17.884;2022-11-20T07:54:26;98235.69;;;1.19
75658;BMP280;64255;49.892;17.884;2022-11-20T07:56:54;98237.81;;;1.04
75658;BMP280;64255;49.892;17.884;2022-11-20T07:59:20;98229.69;;;0.91
75658;BMP280;64255;49.892;17.884;2022-11-20T08:01:48;98245.59;;;0.84
75658;BMP280;64255;49.892;17.884;2022-11-20T08:04:15;98237.75;;;0.81
75658;BMP280;64255;49.892;17.884;2022-11-20T08:06:42;98254.66;;;0.83
75658;BMP280;64255;49.892;17.884;2022-11-20T08:09:09;98253.47;;;0.88
75658;BMP280;64255;49.892;17.884;2022-11-20T08:11:37;98248.53;;;0.90
75658;BMP280;64255;49.892;17.884;2022-11-20T08:14:04;98246.97;;;0.96
75658;BMP280;64255;49.892;17.884;2022-11-20T08:16:31;98240.53;;;0.97
75658;BMP280;64255;49.892;17.884;2022-11-20T08:18:58;98243.81;;;1.05
75658;BMP280;64255;49.892;17.884;2022-11-20T08:21:26;98247.22;;;1.05
75658;BMP280;64255;49.892;17.884;2022-11-20T08:23:53;98247.16;;;1.09
75658;BMP280;64255;49.892;17.884;2022-11-20T08:26:21;98233.47;;;1.18
75658;BMP280;64255;49.892;17.884;2022-11-20T08:28:48;98248.38;;;1.28
75658;BMP280;64255;49.892;17.884;2022-11-20T08:31:16;98253.53;;;1.35
75658;BMP280;64255;49.892;17.884;2022-11-20T08:33:43;98243.16;;;1.45
75658;BMP280;64255;49.892;17.884;2022-11-20T08:36:10;98242.31;;;1.51
75658;BMP280;64255;49.892;17.884;2022-11-20T08:38:37;98238.50;;;1.56
75658;BMP280;64255;49.892;17.884;2022-11-20T08:41:06;98242.84;;;1.66
75658;BMP280;64255;49.892;17.884;2022-11-20T08:43:33;98238.47;;;1.80
75658;BMP280;64255;49.892;17.884;2022-11-20T08:53:30;98236.34;;;1.91
75658;BMP280;64255;49.892;17.884;2022-11-20T08:55:58;98227.84;;;0.61
75658;BMP280;64255;49.892;17.884;2022-11-20T08:58:25;98229.56;;;0.44
75658;BMP280;64255;49.892;17.884;2022-11-20T09:00:53;98225.78;;;0.18
75658;BMP280;64255;49.892;17.884;2022-11-20T09:03:20;98230.59;;;0.23
75658;BMP280;64255;49.892;17.884;2022-11-20T09:05:47;98230.69;;;0.15
75658;BMP280;64255;49.892;17.884;2022-11-20T09:08:14;98227.22;;;-0.12
75658;BMP280;64255;49.892;17.884;2022-11-20T09:10:41;98215.00;;;0.05
75658;BMP280;64255;49.892;17.884;2022-11-20T09:13:08;98217.41;;;-0.08
75658;BMP280;64255;49.892;17.884;2022-11-20T09:15:36;98210.38;;;0.16
75658;BMP280;64255;49.892;17.884;2022-11-20T09:18:03;98217.91;;;0.14
75658;BMP280;64255;49.892;17.884;2022-11-20T09:20:31;98212.44;;;0.32
75658;BMP280;64255;49.892;17.884;2022-11-20T09:22:58;98220.16;;;0.43
75658;BMP280;64255;49.892;17.884;2022-11-20T09:25:25;98210.13;;;0.34
75658;BMP280;64255;49.892;17.884;2022-11-20T09:27:58;98212.50;;;0.28
75658;BMP280;64255;49.892;17.884;2022-11-20T09:30:26;98205.22;;;0.05
75658;BMP280;64255;49.892;17.884;2022-11-20T09:32:54;98211.81;;;-0.14
75658;BMP280;64255;49.892;17.884;2022-11-20T09:35:21;98210.22;;;-0.04
75658;BMP280;64255;49.892;17.884;2022-11-20T09:37:48;98207.81;;;0.09
75658;BMP280;64255;49.892;17.884;2022-11-20T09:40:27;98211.09;;;0.17
75658;BMP280;64255;49.892;17.884;2022-11-20T09:46:17;98201.75;;;0.70
75658;BMP280;64255;49.892;17.884;2022-11-20T09:55:29;98192.78;;;1.19
75658;BMP280;64255;49.892;17.884;2022-11-20T09:57:59;98183.19;;;1.29
75658;BMP280;64255;49.892;17.884;2022-11-20T10:00:29;98181.50;;;1.38
75658;BMP280;64255;49.892;17.884;2022-11-20T10:03:16;98179.56;;;1.39
75658;BMP280;64255;49.892;17.884;2022-11-20T10:05:54;98173.88;;;1.64
75658;BMP280;64255;49.892;17.884;2022-11-20T10:23:27;98175.13;;;1.96
75658;BMP280;64255;49.892;17.884;2022-11-20T10:29:16;98176.53;;;1.64
75658;BMP280;64255;49.892;17.884;2022-11-20T10:31:59;98173.19;;;1.60
75658;BMP280;64255;49.892;17.884;2022-11-20T10:35:24;98175.91;;;1.77
75658;BMP280;64255;49.892;17.884;2022-11-20T10:37:46;98160.63;;;2.05
75658;BMP280;64255;49.892;17.884;2022-11-20T10:40:42;98164.16;;;2.18
75658;BMP280;64255;49.892;17.884;2022-11-20T10:43:39;98159.44;;;2.09
75658;BMP280;64255;49.892;17.884;2022-11-20T10:46:15;98150.63;;;2.16
75658;BMP280;64255;49.892;17.884;2022-11-20T10:48:46;98150.22;;;2.17
75658;BMP280;64255;49.892;17.884;2022-11-20T10:51:37;98155.06;;;2.19
75658;BMP280;64255;49.892;17.884;2022-11-20T10:54:36;98142.38;;;2.30
75658;BMP280;64255;49.892;17.884;2022-11-20T10:57:31;98157.44;;;2.50
75658;BMP280;64255;49.892;17.884;2022-11-20T11:00:10;98165.28;;;2.70
75658;BMP280;64255;49.892;17.884;2022-11-20T11:02:53;98165.78;;;2.65
75658;BMP280;64255;49.892;17.884;2022-11-20T11:08:14;98155.09;;;1.99
75658;BMP280;64255;49.892;17.884;2022-11-20T11:10:56;98142.72;;;2.99
75658;BMP280;64255;49.892;17.884;2022-11-20T11:13:27;98154.03;;;2.99
75658;BMP280;64255;49.892;17.884;2022-11-20T11:15:56;98146.59;;;2.94
75658;BMP280;64255;49.892;17.884;2022-11-20T11:18:33;98129.38;;;3.02
75658;BMP280;64255;49.892;17.884;2022-11-20T11:21:04;98136.22;;;3.16
75658;BMP280;64255;49.892;17.884;2022-11-20T11:23:41;98125.00;;;3.12
75658;BMP280;64255;49.892;17.884;2022-11-20T11:26:23;98127.75;;;3.51
75658;BMP280;64255;49.892;17.884;2022-11-20T11:29:01;98120.66;;;3.48
75658;BMP280;64255;49.892;17.884;2022-11-20T11:31:32;98122.13;;;3.62
75658;BMP280;64255;49.892;17.884;2022-11-20T11:34:06;98119.25;;;3.43
75658;BMP280;64255;49.892;17.884;2022-11-20T11:36:35;98130.34;;;3.38
75658;BMP280;64255;49.892;17.884;2022-11-20T11:39:11;98118.84;;;3.15
75658;BMP280;64255;49.892;17.884;2022-11-20T11:41:40;98125.91;;;3.05
75658;BMP280;64255;49.892;17.884;2022-11-20T11:46:56;98124.44;;;2.88
75658;BMP280;64255;49.892;17.884;2022-11-20T11:49:24;98120.03;;;2.68
75658;BMP280;64255;49.892;17.884;2022-11-20T11:52:12;98129.84;;;2.68
75658;BMP280;64255;49.892;17.884;2022-11-20T11:54:55;98120.44;;;2.67
75658;BMP280;64255;49.892;17.884;2022-11-20T12:00:48;98136.63;;;2.52
75658;BMP280;64255;49.892;17.884;2022-11-20T12:03:39;98129.19;;;2.47
75658;BMP280;64255;49.892;17.884;2022-11-20T12:06:15;98134.94;;;2.42
75658;BMP280;64255;49.892;17.884;2022-11-20T12:08:59;98125.22;;;2.39
75658;BMP280;64255;49.892;17.884;2022-11-20T12:11:55;98106.38;;;2.37
75658;BMP280;64255;49.892;17.884;2022-11-20T12:14:34;98103.25;;;2.42
75658;BMP280;64255;49.892;17.884;2022-11-20T12:17:03;98098.78;;;2.55
75658;BMP280;64255;49.892;17.884;2022-11-20T12:19:34;98103.69;;;2.57
75658;BMP280;64255;49.892;17.884;2022-11-20T12:25:14;98110.34;;;2.45
75658;BMP280;64255;49.892;17.884;2022-11-20T12:31:34;98085.91;;;2.41
75658;BMP280;64255;49.892;17.884;2022-11-20T12:39:48;98082.34;;;2.47
75658;BMP280;64255;49.892;17.884;2022-11-20T12:42:34;98078.25;;;2.30
75658;BMP280;64255;49.892;17.884;2022-11-20T12:58:13;98044.16;;;2.36
75658;BMP280;64255;49.892;17.884;2022-11-20T13:01:20;98042.78;;;2.31
75658;BMP280;64255;49.892;17.884;2022-11-20T13:03:55;98052.41;;;2.38
75658;BMP280;64255;49.892;17.884;2022-11-20T13:06:25;98050.09;;;2.40
75658;BMP280;64255;49.892;17.884;2022-11-20T13:08:56;98033.81;;;2.41
75658;BMP280;64255;49.892;17.884;2022-11-20T13:11:32;98042.66;;;2.51
75658;BMP280;64255;49.892;17.884;2022-11-20T13:14:40;98048.28;;;2.37
75658;BMP280;64255;49.892;17.884;2022-11-20T13:17:59;98047.00;;;2.28
75658;BMP280;64255;49.892;17.884;2022-11-20T13:20:28;98033.56;;;2.36
75658;BMP280;64255;49.892;17.884;2022-11-20T13:22:57;98040.41;;;2.49
75658;BMP280;64255;49.892;17.884;2022-11-20T13:25:30;98040.69;;;2.39
75658;BMP280;64255;49.892;17.884;2022-11-20T13:29:01;98043.63;;;2.41
75658;BMP280;64255;49.892;17.884;2022-11-20T13:30:56;98045.22;;;2.38
75658;BMP280;64255;49.892;17.884;2022-11-20T13:36:05;98043.41;;;2.19
75658;BMP280;64255;49.892;17.884;2022-11-20T13:38:52;98038.88;;;2.19
75658;BMP280;64255;49.892;17.884;2022-11-20T13:41:34;98037.47;;;1.98
75658;BMP280;64255;49.892;17.884;2022-11-20T13:44:33;98034.56;;;2.09
75658;BMP280;64255;49.892;17.884;2022-11-20T13:47:01;98038.19;;;1.98
75658;BMP280;64255;49.892;17.884;2022-11-20T13:49:39;98022.53;;;2.08
75658;BMP280;64255;49.892;17.884;2022-11-20T13:55:33;98015.41;;;2.05
75658;BMP280;64255;49.892;17.884;2022-11-20T14:03:48;98037.28;;;1.89
75658;BMP280;64255;49.892;17.884;2022-11-20T14:06:31;98027.63;;;1.98
75658;BMP280;64255;49.892;17.884;2022-11-20T14:09:00;98029.03;;;2.03
75658;BMP280;64255;49.892;17.884;2022-11-20T14:11:30;98030.19;;;2.02
75658;BMP280;64255;49.892;17.884;2022-11-20T14:16:35;98030.94;;;1.86
75658;BMP280;64255;49.892;17.884;2022-11-20T14:21:54;98021.53;;;1.85
75658;BMP280;64255;49.892;17.884;2022-11-20T14:24:32;98021.94;;;2.00
75658;BMP280;64255;49.892;17.884;2022-11-20T14:27:00;98025.81;;;1.95
75658;BMP280;64255;49.892;17.884;2022-11-20T14:29:33;98038.13;;;1.85
75658;BMP280;64255;49.892;17.884;2022-11-20T14:32:03;98035.16;;;1.83
75658;BMP280;64255;49.892;17.884;2022-11-20T14:34:35;98042.47;;;1.76
75658;BMP280;64255;49.892;17.884;2022-11-20T14:37:13;98050.16;;;1.86
75658;BMP280;64255;49.892;17.884;2022-11-20T14:39:54;98037.03;;;1.83
75658;BMP280;64255;49.892;17.884;2022-11-20T14:42:27;98035.28;;;1.76
75658;BMP280;64255;49.892;17.884;2022-11-20T14:44:58;98031.03;;;1.82
75658;BMP280;64255;49.892;17.884;2022-11-20T14:47:30;98037.47;;;1.81
75658;BMP280;64255;49.892;17.884;2022-11-20T14:49:59;98022.66;;;1.67
75658;BMP280;64255;49.892;17.884;2022-11-20T14:52:28;98011.53;;;1.60
75658;BMP280;64255;49.892;17.884;2022-11-20T14:54:59;98015.31;;;1.59
75658;BMP280;64255;49.892;17.884;2022-11-20T14:57:34;98014.78;;;1.47
75658;BMP280;64255;49.892;17.884;2022-11-20T15:00:05;98018.97;;;1.45
75658;BMP280;64255;49.892;17.884;2022-11-20T15:02:33;98018.19;;;1.28
75658;BMP280;64255;49.892;17.884;2022-11-20T15:05:02;98018.78;;;1.35
75658;BMP280;64255;49.892;17.884;2022-11-20T15:07:36;98020.91;;;1.24
75658;BMP280;64255;49.892;17.884;2022-11-20T15:12:54;98018.13;;;1.11
75658;BMP280;64255;49.892;17.884;2022-11-20T15:18:47;98025.66;;;0.89
75658;BMP280;64255;49.892;17.884;2022-11-20T15:21:14;98025.66;;;0.89
75658;BMP280;64255;49.892;17.884;2022-11-20T15:23:44;98025.03;;;0.81
75658;BMP280;64255;49.892;17.884;2022-11-20T15:26:14;98026.16;;;1.04
75658;BMP280;64255;49.892;17.884;2022-11-20T15:28:44;98005.34;;;0.89
75658;BMP280;64255;49.892;17.884;2022-11-20T15:31:14;98001.59;;;0.87
75658;BMP280;64255;49.892;17.884;2022-11-20T15:33:42;97994.63;;;0.76
75658;BMP280;64255;49.892;17.884;2022-11-20T15:36:10;97984.97;;;0.70
75658;BMP280;64255;49.892;17.884;2022-11-20T15:38:37;97988.81;;;0.65
75658;BMP280;64255;49.892;17.884;2022-11-20T15:41:05;97988.38;;;0.70
75658;BMP280;64255;49.892;17.884;2022-11-20T15:43:32;97984.69;;;0.64
75658;BMP280;64255;49.892;17.884;2022-11-20T15:46:09;97977.47;;;0.68
75658;BMP280;64255;49.892;17.884;2022-11-20T15:48:42;97973.81;;;0.62
75658;BMP280;64255;49.892;17.884;2022-11-20T15:53:39;97969.16;;;0.70
75658;BMP280;64255;49.892;17.884;2022-11-20T15:56:12;97968.44;;;0.69
75658;BMP280;64255;49.892;17.884;2022-11-20T15:58:40;97973.34;;;0.67
75658;BMP280;64255;49.892;17.884;2022-11-20T16:01:14;97984.31;;;0.66
75658;BMP280;64255;49.892;17.884;2022-11-20T16:03:42;97996.59;;;0.72
75658;BMP280;64255;49.892;17.884;2022-11-20T16:06:09;97988.69;;;0.72
75658;BMP280;64255;49.892;17.884;2022-11-20T16:08:37;97993.50;;;0.77
75658;BMP280;64255;49.892;17.884;2022-11-20T16:11:04;97988.28;;;0.74
75658;BMP280;64255;49.892;17.884;2022-11-20T16:13:33;97991.19;;;0.80
75658;BMP280;64255;49.892;17.884;2022-11-20T16:16:11;98005.38;;;0.86
75658;BMP280;64255;49.892;17.884;2022-11-20T16:18:41;97993.44;;;0.81
75658;BMP280;64255;49.892;17.884;2022-11-20T16:21:11;97998.97;;;0.87
75658;BMP280;64255;49.892;17.884;2022-11-20T16:23:41;98000.94;;;0.83
75658;BMP280;64255;49.892;17.884;2022-11-20T16:26:14;97994.38;;;0.91
75658;BMP280;64255;49.892;17.884;2022-11-20T16:28:42;98006.25;;;0.79
75658;BMP280;64255;49.892;17.884;2022-11-20T16:31:17;98003.63;;;0.55
75658;BMP280;64255;49.892;17.884;2022-11-20T16:33:54;98010.41;;;0.56
75658;BMP280;64255;49.892;17.884;2022-11-20T16:36:24;97998.63;;;0.85
75658;BMP280;64255;49.892;17.884;2022-11-20T16:38:54;97997.75;;;0.91
75658;BMP280;64255;49.892;17.884;2022-11-20T16:41:23;97997.75;;;0.91
75658;BMP280;64255;49.892;17.884;2022-11-20T16:43:54;97988.03;;;0.88
75658;BMP280;64255;49.892;17.884;2022-11-20T16:46:23;97999.25;;;0.92
75658;BMP280;64255;49.892;17.884;2022-11-20T16:48:59;98009.06;;;0.92
75658;BMP280;64255;49.892;17.884;2022-11-20T16:51:29;98000.81;;;0.90
75658;BMP280;64255;49.892;17.884;2022-11-20T16:53:57;98006.50;;;0.88
75658;BMP280;64255;49.892;17.884;2022-11-20T16:56:27;98000.38;;;0.91
75658;BMP280;64255;49.892;17.884;2022-11-20T16:58:57;98010.53;;;0.93
75658;BMP280;64255;49.892;17.884;2022-11-20T17:01:27;98000.47;;;0.88
75658;BMP280;64255;49.892;17.884;2022-11-20T17:06:26;97988.69;;;0.92
75658;BMP280;64255;49.892;17.884;2022-11-20T17:08:54;97991.69;;;0.95
75658;BMP280;64255;49.892;17.884;2022-11-20T17:11:23;98000.63;;;1.01
75658;BMP280;64255;49.892;17.884;2022-11-20T17:13:51;97999.53;;;0.98
75658;BMP280;64255;49.892;17.884;2022-11-20T17:16:22;97979.59;;;0.97
75658;BMP280;64255;49.892;17.884;2022-11-20T17:18:50;97981.91;;;0.95
75658;BMP280;64255;49.892;17.884;2022-11-20T17:21:20;97983.97;;;1.04
75658;BMP280;64255;49.892;17.884;2022-11-20T17:23:47;97978.97;;;1.10
75658;BMP280;64255;49.892;17.884;2022-11-20T17:26:16;97982.56;;;0.99
75658;BMP280;64255;49.892;17.884;2022-11-20T17:28:54;97963.84;;;1.14
75658;BMP280;64255;49.892;17.884;2022-11-20T17:31:21;97961.97;;;1.14
75658;BMP280;64255;49.892;17.884;2022-11-20T17:33:49;97969.13;;;1.14
75658;BMP280;64255;49.892;17.884;2022-11-20T17:36:19;97973.25;;;1.15
75658;BMP280;64255;49.892;17.884;2022-11-20T17:38:47;97978.50;;;1.15
75658;BMP280;64255;49.892;17.884;2022-11-20T17:41:18;97980.69;;;1.20
75658;BMP280;64255;49.892;17.884;2022-11-20T17:43:46;97969.97;;;1.27
75658;BMP280;64255;49.892;17.884;2022-11-20T17:46:17;97969.09;;;1.34
75658;BMP280;64255;49.892;17.884;2022-11-20T17:48:47;97969.19;;;1.30
75658;BMP280;64255;49.892;17.884;2022-11-20T17:51:22;97963.41;;;1.35
75658;BMP280;64255;49.892;17.884;2022-11-20T17:53:54;97975.03;;;1.38
75658;BMP280;64255;49.892;17.884;2022-11-20T17:56:22;97972.31;;;1.42
75658;BMP280;64255;49.892;17.884;2022-11-20T17:58:50;97967.00;;;1.25
75658;BMP280;64255;49.892;17.884;2022-11-20T18:01:18;97954.25;;;1.40
75658;BMP280;64255;49.892;17.884;2022-11-20T18:03:47;97952.03;;;1.38
75658;BMP280;64255;49.892;17.884;2022-11-20T18:06:25;97957.81;;;1.50
75658;BMP280;64255;49.892;17.884;2022-11-20T18:08:52;97942.81;;;1.47
75658;BMP280;64255;49.892;17.884;2022-11-20T18:11:32;97950.72;;;1.47
75658;BMP280;64255;49.892;17.884;2022-11-20T18:14:02;97959.03;;;1.45
75658;BMP280;64255;49.892;17.884;2022-11-20T18:16:32;97958.28;;;1.45
75658;BMP280;64255;49.892;17.884;2022-11-20T18:19:01;97962.03;;;1.47
75658;BMP280;64255;49.892;17.884;2022-11-20T18:21:30;97969.19;;;1.47
75658;BMP280;64255;49.892;17.884;2022-11-20T18:23:57;97957.22;;;1.42
75658;BMP280;64255;49.892;17.884;2022-11-20T18:26:25;97962.09;;;1.44
75658;BMP280;64255;49.892;17.884;2022-11-20T18:28:53;97964.41;;;1.42
75658;BMP280;64255;49.892;17.884;2022-11-20T18:31:20;97962.16;;;1.40
75658;BMP280;64255;49.892;17.884;2022-11-20T18:33:48;97953.78;;;1.45
75658;BMP280;64255;49.892;17.884;2022-11-20T18:36:23;97963.25;;;1.43
75658;BMP280;64255;49.892;17.884;2022-11-20T18:38:54;97959.59;;;1.20
75658;BMP280;64255;49.892;17.884;2022-11-20T18:41:24;97975.41;;;1.20
75658;BMP280;64255;49.892;17.884;2022-11-20T18:43:51;97973.97;;;1.15
75658;BMP280;64255;49.892;17.884;2022-11-20T18:46:18;97963.63;;;1.25
75658;BMP280;64255;49.892;17.884;2022-11-20T18:48:45;97960.28;;;1.41
75658;BMP280;64255;49.892;17.884;2022-11-20T18:51:12;97963.00;;;1.37
75658;BMP280;64255;49.892;17.884;2022-11-20T18:53:39;97950.59;;;1.17
75658;BMP280;64255;49.892;17.884;2022-11-20T18:56:07;97956.53;;;1.21
75658;BMP280;64255;49.892;17.884;2022-11-20T18:58:34;97964.88;;;1.20
75658;BMP280;64255;49.892;17.884;2022-11-20T19:01:06;97973.94;;;1.19
75658;BMP280;64255;49.892;17.884;2022-11-20T19:03:33;97972.44;;;1.18
75658;BMP280;64255;49.892;17.884;2022-11-20T19:06:01;97975.69;;;1.26
75658;BMP280;64255;49.892;17.884;2022-11-20T19:08:28;97964.94;;;0.96
75658;BMP280;64255;49.892;17.884;2022-11-20T19:11:09;97972.28;;;0.85
75658;BMP280;64255;49.892;17.884;2022-11-20T19:13:38;97961.19;;;0.73
75658;BMP280;64255;49.892;17.884;2022-11-20T19:16:11;97960.06;;;0.51
75658;BMP280;64255;49.892;17.884;2022-11-20T19:18:40;97948.50;;;0.68
75658;BMP280;64255;49.892;17.884;2022-11-20T19:21:09;97952.09;;;0.78
75658;BMP280;64255;49.892;17.884;2022-11-20T19:23:38;97958.50;;;0.77
75658;BMP280;64255;49.892;17.884;2022-11-20T19:26:06;97944.50;;;0.60
75658;BMP280;64255;49.892;17.884;2022-11-20T19:28:36;97950.38;;;0.88
75658;BMP280;64255;49.892;17.884;2022-11-20T19:31:08;97928.38;;;0.58
75658;BMP280;64255;49.892;17.884;2022-11-20T19:33:37;97932.69;;;0.68
75658;BMP280;64255;49.892;17.884;2022-11-20T19:36:16;97931.88;;;0.91
75658;BMP280;64255;49.892;17.884;2022-11-20T19:38:46;97919.09;;;0.90
75658;BMP280;64255;49.892;17.884;2022-11-20T19:41:15;97913.78;;;0.53
75658;BMP280;64255;49.892;17.884;2022-11-20T19:43:43;97902.56;;;0.69
75658;BMP280;64255;49.892;17.884;2022-11-20T19:46:10;97908.44;;;0.77
75658;BMP280;64255;49.892;17.884;2022-11-20T19:48:38;97894.84;;;0.79
75658;BMP280;64255;49.892;17.884;2022-11-20T19:51:18;97899.41;;;0.78
75658;BMP280;64255;49.892;17.884;2022-11-20T19:53:46;97905.84;;;0.73
75658;BMP280;64255;49.892;17.884;2022-11-20T19:56:14;97899.41;;;0.78
75658;BMP280;64255;49.892;17.884;2022-11-20T19:58:42;97914.44;;;0.77
75658;BMP280;64255;49.892;17.884;2022-11-20T20:01:18;97899.66;;;0.84
75658;BMP280;64255;49.892;17.884;2022-11-20T20:03:47;97900.06;;;0.82
75658;BMP280;64255;49.892;17.884;2022-11-20T20:06:21;97902.31;;;0.84
75658;BMP280;64255;49.892;17.884;2022-11-20T20:09:02;97905.41;;;0.79
75658;BMP280;64255;49.892;17.884;2022-11-20T20:11:31;97879.47;;;0.77
75658;BMP280;64255;49.892;17.884;2022-11-20T20:14:05;97888.44;;;0.80
75658;BMP280;64255;49.892;17.884;2022-11-20T20:16:33;97892.69;;;0.73
75658;BMP280;64255;49.892;17.884;2022-11-20T20:19:03;97887.16;;;0.68
75658;BMP280;64255;49.892;17.884;2022-11-20T20:21:33;97885.94;;;0.72
75658;BMP280;64255;49.892;17.884;2022-11-20T20:24:01;97881.41;;;0.73
75658;BMP280;64255;49.892;17.884;2022-11-20T20:26:30;97887.16;;;0.68
75658;BMP280;64255;49.892;17.884;2022-11-20T20:29:00;97894.31;;;0.67
75658;BMP280;64255;49.892;17.884;2022-11-20T20:31:30;97888.56;;;0.72
75658;BMP280;64255;49.892;17.884;2022-11-20T20:33:59;97890.88;;;0.70
75658;BMP280;64255;49.892;17.884;2022-11-20T20:36:26;97885.38;;;0.61
75658;BMP280;64255;49.892;17.884;2022-11-20T20:38:56;97889.84;;;0.64
75658;BMP280;64255;49.892;17.884;2022-11-20T20:41:24;97898.44;;;0.68
75658;BMP280;64255;49.892;17.884;2022-11-20T20:43:51;97888.97;;;0.71
75658;BMP280;64255;49.892;17.884;2022-11-20T20:46:19;97890.94;;;0.67
75658;BMP280;64255;49.892;17.884;2022-11-20T20:48:46;97893.56;;;0.67
75658;BMP280;64255;49.892;17.884;2022-11-20T20:51:14;97902.28;;;0.64
75658;BMP280;64255;49.892;17.884;2022-11-20T20:53:41;97905.19;;;0.69
75658;BMP280;64255;49.892;17.884;2022-11-20T20:56:09;97909.06;;;0.65
75658;BMP280;64255;49.892;17.884;2022-11-20T20:58:36;97914.31;;;0.65
75658;BMP280;64255;49.892;17.884;2022-11-20T21:01:07;97925.00;;;0.77
75658;BMP280;64255;49.892;17.884;2022-11-20T21:03:36;97926.00;;;0.84
75658;BMP280;64255;49.892;17.884;2022-11-20T21:06:05;97926.13;;;0.56
75658;BMP280;64255;49.892;17.884;2022-11-20T21:08:33;97925.13;;;0.70
75658;BMP280;64255;49.892;17.884;2022-11-20T21:11:12;97941.34;;;0.89
75658;BMP280;64255;49.892;17.884;2022-11-20T21:13:42;97937.47;;;0.93
75658;BMP280;64255;49.892;17.884;2022-11-20T21:16:12;97942.09;;;0.89
75658;BMP280;64255;49.892;17.884;2022-11-20T21:18:41;97947.47;;;0.62
75658;BMP280;64255;49.892;17.884;2022-11-20T21:21:12;97953.78;;;0.44
75658;BMP280;64255;49.892;17.884;2022-11-20T21:23:40;97952.94;;;0.51
75658;BMP280;64255;49.892;17.884;2022-11-20T21:26:08;97952.94;;;0.51
75658;BMP280;64255;49.892;17.884;2022-11-20T21:28:37;97950.53;;;0.37
75658;BMP280;64255;49.892;17.884;2022-11-20T21:31:09;97946.16;;;0.30
75658;BMP280;64255;49.892;17.884;2022-11-20T21:33:45;97954.94;;;0.43
75658;BMP280;64255;49.892;17.884;2022-11-20T21:36:16;97953.44;;;0.22
75658;BMP280;64255;49.892;17.884;2022-11-20T21:38:45;97946.66;;;0.21
75658;BMP280;64255;49.892;17.884;2022-11-20T21:41:14;97951.19;;;-0.03
75658;BMP280;64255;49.892;17.884;2022-11-20T21:43:42;97948.94;;;0.19
75658;BMP280;64255;49.892;17.884;2022-11-20T21:46:12;97957.88;;;0.02
75658;BMP280;64255;49.892;17.884;2022-11-20T21:48:41;97955.03;;;0.36
75658;BMP280;64255;49.892;17.884;2022-11-20T21:51:12;97948.97;;;0.39
75658;BMP280;64255;49.892;17.884;2022-11-20T21:53:40;97949.31;;;0.41
75658;BMP280;64255;49.892;17.884;2022-11-20T21:56:09;97951.44;;;0.30
75658;BMP280;64255;49.892;17.884;2022-11-20T21:58:40;97962.66;;;0.10
75658;BMP280;64255;49.892;17.884;2022-11-20T22:01:17;97961.59;;;0.28
75658;BMP280;64255;49.892;17.884;2022-11-20T22:03:54;97968.06;;;-0.28
75658;BMP280;64255;49.892;17.884;2022-11-20T22:06:24;97968.00;;;0.03
75658;BMP280;64255;49.892;17.884;2022-11-20T22:08:52;97969.03;;;-0.46
75658;BMP280;64255;49.892;17.884;2022-11-20T22:11:20;97966.84;;;-0.51
75658;BMP280;64255;49.892;17.884;2022-11-20T22:13:48;97968.28;;;-0.46
75658;BMP280;64255;49.892;17.884;2022-11-20T22:16:15;97976.75;;;-0.62
75658;BMP280;64255;49.892;17.884;2022-11-20T22:18:46;97977.06;;;-0.25
75658;BMP280;64255;49.892;17.884;2022-11-20T22:21:15;97986.78;;;0.29
75658;BMP280;64255;49.892;17.884;2022-11-20T22:23:43;97976.22;;;0.53
75658;BMP280;64255;49.892;17.884;2022-11-20T22:26:14;97970.09;;;-0.39
75658;BMP280;64255;49.892;17.884;2022-11-20T22:28:44;97976.75;;;-0.04
75658;BMP280;64255;49.892;17.884;2022-11-20T22:31:12;97981.19;;;0.27
75658;BMP280;64255;49.892;17.884;2022-11-20T22:33:39;97967.91;;;-0.17
75658;BMP280;64255;49.892;17.884;2022-11-20T22:36:11;97962.63;;;-0.13
75658;BMP280;64255;49.892;17.884;2022-11-20T22:38:39;97969.50;;;0.04
75658;BMP280;64255;49.892;17.884;2022-11-20T22:43:37;97973.00;;;0.21
75658;BMP280;64255;49.892;17.884;2022-11-20T22:46:16;97975.00;;;0.13
75658;BMP280;64255;49.892;17.884;2022-11-20T22:49:13;97968.53;;;0.18
75658;BMP280;64255;49.892;17.884;2022-11-20T22:51:41;97958.59;;;0.06
75658;BMP280;64255;49.892;17.884;2022-11-20T22:54:11;97960.56;;;-0.02
75658;BMP280;64255;49.892;17.884;2022-11-20T22:56:39;97945.63;;;-0.36
75658;BMP280;64255;49.892;17.884;2022-11-20T22:59:06;97953.25;;;-0.46
75658;BMP280;64255;49.892;17.884;2022-11-20T23:01:35;97946.78;;;-0.68
75658;BMP280;64255;49.892;17.884;2022-11-20T23:04:08;97939.50;;;-0.88
75658;BMP280;64255;49.892;17.884;2022-11-20T23:06:35;97943.13;;;-0.74
75658;BMP280;64255;49.892;17.884;2022-11-20T23:09:05;97951.72;;;-1.47
75658;BMP280;64255;49.892;17.884;2022-11-20T23:11:34;97944.63;;;-1.50
75658;BMP280;64255;49.892;17.884;2022-11-20T23:14:11;97954.50;;;-0.85
75658;BMP280;64255;49.892;17.884;2022-11-20T23:16:39;97950.91;;;-0.67
75658;BMP280;64255;49.892;17.884;2022-11-20T23:19:11;97947.31;;;-0.81
75658;BMP280;64255;49.892;17.884;2022-11-20T23:21:41;97950.72;;;-0.84
75658;BMP280;64255;49.892;17.884;2022-11-20T23:24:09;97942.22;;;-0.64
75658;BMP280;64255;49.892;17.884;2022-11-20T23:26:38;97949.97;;;-0.22
75658;BMP280;64255;49.892;17.884;2022-11-20T23:29:07;97946.00;;;-0.07
75658;BMP280;64255;49.892;17.884;2022-11-20T23:31:34;97944.75;;;-0.26